Time,TemperatureF,DewpointF,PressureIn,WindDirection,WindDirectionDegrees,WindSpeedMPH,WindSpeedGustMPH,Humidity,HourlyPrecipIn,Conditions,Clouds,dailyrainin,SoftwareType,DateUTC
2013-03-04 00:00:00,38.8,28.8,29.77,ESE,109,1.0,9.0,67,0.00,,---,0.00,VWS V14.01,2013-03-04 06:00:00,
2013-03-04 00:05:00,38.8,28.8,29.76,ESE,103,3.0,7.0,67,0.00,,---,0.00,VWS V14.01,2013-03-04 06:05:00,
2013-03-04 00:10:00,38.8,28.8,29.76,East,91,3.0,7.0,67,0.00,,---,0.00,VWS V14.01,2013-03-04 06:10:00,
2013-03-04 00:15:00,38.9,28.9,29.76,SSE,157,3.0,7.0,67,0.00,,---,0.00,VWS V14.01,2013-03-04 06:15:00,
2013-03-04 00:20:00,38.9,28.9,29.75,East,88,3.0,7.0,67,0.00,,---,0.00,VWS V14.01,2013-03-04 06:20:00,
2013-03-04 00:25:00,39.1,29.1,29.75,East,101,2.0,10.0,67,0.00,,---,0.00,VWS V14.01,2013-03-04 06:25:00,
2013-03-04 00:30:00,39.1,28.7,29.75,SE,143,2.0,10.0,66,0.00,,---,0.00,VWS V14.01,2013-03-04 06:30:00,
2013-03-04 00:35:00,39.1,28.7,29.74,SSW,206,6.0,6.0,66,0.00,,---,0.00,VWS V14.01,2013-03-04 06:35:00,
2013-03-04 00:40:00,39.1,28.7,29.74,SSE,150,3.0,8.0,66,0.00,,---,0.00,VWS V14.01,2013-03-04 06:40:00,
2013-03-04 00:45:00,39.1,28.7,29.74,SE,134,1.0,9.0,66,0.00,,---,0.00,VWS V14.01,2013-03-04 06:45:00,
2013-03-04 00:50:00,39.2,28.8,29.73,SE,138,1.0,9.0,66,0.00,,---,0.00,VWS V14.01,2013-03-04 06:50:00,
2013-03-04 00:55:00,39.2,28.8,29.73,SSE,158,5.0,10.0,66,0.00,,---,0.00,VWS V14.01,2013-03-04 06:55:00,
2013-03-04 01:00:00,39.1,28.7,29.73,South,191,5.0,10.0,66,0.00,,---,0.00,VWS V14.01,2013-03-04 07:00:00,
2013-03-04 01:05:00,39.2,28.8,29.73,SSE,159,3.0,7.0,66,0.00,,---,0.00,VWS V14.01,2013-03-04 07:05:00,
2013-03-04 01:10:00,39.2,29.2,29.73,ESE,115,3.0,8.0,67,0.00,,---,0.00,VWS V14.01,2013-03-04 07:10:00,
2013-03-04 01:15:00,39.2,29.2,29.73,ENE,76,1.0,8.0,67,0.00,,---,0.00,VWS V14.01,2013-03-04 07:15:00,
2013-03-04 01:20:00,39.3,29.3,29.73,SSE,154,0.0,9.0,67,0.00,,---,0.00,VWS V14.01,2013-03-04 07:20:00,
2013-03-04 01:25:00,39.3,28.9,29.73,SE,138,0.0,9.0,66,0.00,,---,0.00,VWS V14.01,2013-03-04 07:25:00,
2013-03-04 01:30:00,39.3,28.9,29.73,East,95,6.0,9.0,66,0.00,,---,0.00,VWS V14.01,2013-03-04 07:30:00,
2013-03-04 01:35:00,39.5,29.1,29.73,ESE,121,4.0,9.0,66,0.00,,---,0.00,VWS V14.01,2013-03-04 07:35:00,
2013-03-04 01:40:00,39.5,29.1,29.73,East,97,1.0,9.0,66,0.00,,---,0.00,VWS V14.01,2013-03-04 07:40:00,
2013-03-04 01:45:00,39.5,29.1,29.73,SE,126,5.0,9.0,66,0.00,,---,0.00,VWS V14.01,2013-03-04 07:45:00,
2013-03-04 01:50:00,39.5,29.1,29.71,East,96,3.0,9.0,66,0.00,,---,0.00,VWS V14.01,2013-03-04 07:50:00,
2013-03-04 01:55:00,39.5,29.1,29.71,ESE,115,4.0,9.0,66,0.00,,---,0.00,VWS V14.01,2013-03-04 07:55:00,
2013-03-04 02:00:00,39.5,29.1,29.71,ESE,114,0.0,9.0,66,0.00,,---,0.00,VWS V14.01,2013-03-04 08:00:00,
2013-03-04 02:05:00,39.3,28.9,29.71,ESE,109,3.0,6.0,66,0.00,,---,0.00,VWS V14.01,2013-03-04 08:05:00,
2013-03-04 02:10:00,39.2,28.8,29.71,SE,126,1.0,7.0,66,0.00,,---,0.00,VWS V14.01,2013-03-04 08:10:00,
2013-03-04 02:15:00,39.1,28.7,29.71,ENE,63,3.0,7.0,66,0.00,,---,0.00,VWS V14.01,2013-03-04 08:15:00,
2013-03-04 02:20:00,39.1,28.7,29.71,ESE,116,3.0,10.0,66,0.00,,---,0.00,VWS V14.01,2013-03-04 08:20:00,
2013-03-04 02:25:00,39.1,28.7,29.71,ESE,111,1.0,10.0,66,0.00,,---,0.00,VWS V14.01,2013-03-04 08:25:00,
2013-03-04 02:30:00,39.1,28.7,29.71,East,99,2.0,10.0,66,0.00,,---,0.00,VWS V14.01,2013-03-04 08:30:00,
2013-03-04 02:35:00,39.1,28.7,29.71,SSE,165,3.0,7.0,66,0.00,,---,0.00,VWS V14.01,2013-03-04 08:35:00,
2013-03-04 02:40:00,39.1,28.7,29.71,ESE,106,2.0,7.0,66,0.00,,---,0.00,VWS V14.01,2013-03-04 08:40:00,
2013-03-04 02:45:00,39.1,28.7,29.71,SE,133,1.0,7.0,66,0.00,,---,0.00,VWS V14.01,2013-03-04 08:45:00,
2013-03-04 02:50:00,38.9,28.5,29.70,ESE,115,1.0,7.0,66,0.00,,---,0.00,VWS V14.01,2013-03-04 08:50:00,
2013-03-04 02:55:00,38.8,28.4,29.70,SE,129,2.0,8.0,66,0.00,,---,0.00,VWS V14.01,2013-03-04 08:55:00,
2013-03-04 03:00:00,38.6,28.2,29.70,SSE,165,0.0,8.0,66,0.00,,---,0.00,VWS V14.01,2013-03-04 09:00:00,
2013-03-04 03:05:00,38.5,28.5,29.70,SE,134,1.0,4.0,67,0.00,,---,0.00,VWS V14.01,2013-03-04 09:05:00,
2013-03-04 03:10:00,38.5,28.5,29.70,SE,143,5.0,7.0,67,0.00,,---,0.00,VWS V14.01,2013-03-04 09:10:00,
2013-03-04 03:15:00,38.6,28.6,29.70,ESE,111,1.0,7.0,67,0.00,,---,0.00,VWS V14.01,2013-03-04 09:15:00,
2013-03-04 03:20:00,38.6,28.6,29.70,ENE,73,0.0,7.0,67,0.00,,---,0.00,VWS V14.01,2013-03-04 09:20:00,
2013-03-04 03:25:00,38.5,28.5,29.70,East,84,2.0,7.0,67,0.00,,---,0.00,VWS V14.01,2013-03-04 09:25:00,
2013-03-04 03:30:00,38.3,28.3,29.70,ENE,67,4.0,7.0,67,0.00,,---,0.00,VWS V14.01,2013-03-04 09:30:00,
2013-03-04 03:35:00,38.2,28.2,29.69,ESE,102,4.0,8.0,67,0.00,,---,0.00,VWS V14.01,2013-03-04 09:35:00,
2013-03-04 03:40:00,38.0,28.0,29.69,East,96,5.0,8.0,67,0.00,,---,0.00,VWS V14.01,2013-03-04 09:40:00,
2013-03-04 03:45:00,38.0,28.0,29.69,East,89,5.0,8.0,67,0.00,,---,0.00,VWS V14.01,2013-03-04 09:45:00,
2013-03-04 03:50:00,37.9,27.9,29.69,SE,141,1.0,8.0,67,0.00,,---,0.00,VWS V14.01,2013-03-04 09:50:00,
2013-03-04 03:55:00,37.9,27.9,29.69,East,96,2.0,8.0,67,0.00,,---,0.00,VWS V14.01,2013-03-04 09:55:00,
2013-03-04 04:00:00,37.9,28.3,29.69,East,85,2.0,8.0,68,0.00,,---,0.00,VWS V14.01,2013-03-04 10:00:00,
2013-03-04 04:05:00,37.9,28.3,29.69,ESE,113,2.0,4.0,68,0.00,,---,0.00,VWS V14.01,2013-03-04 10:05:00,
2013-03-04 04:10:00,37.9,28.3,29.69,East,98,6.0,7.0,68,0.00,,---,0.00,VWS V14.01,2013-03-04 10:10:00,
2013-03-04 04:15:00,37.8,28.2,29.69,East,95,0.0,7.0,68,0.00,,---,0.00,VWS V14.01,2013-03-04 10:15:00,
2013-03-04 04:20:00,37.6,28.0,29.70,East,84,3.0,7.0,68,0.00,,---,0.00,VWS V14.01,2013-03-04 10:20:00,
2013-03-04 04:25:00,37.5,27.9,29.70,ENE,72,3.0,7.0,68,0.00,,---,0.00,VWS V14.01,2013-03-04 10:25:00,
2013-03-04 04:30:00,37.3,27.7,29.70,East,100,3.0,8.0,68,0.00,,---,0.00,VWS V14.01,2013-03-04 10:30:00,
2013-03-04 04:35:00,37.3,27.7,29.70,East,98,2.0,6.0,68,0.00,,---,0.00,VWS V14.01,2013-03-04 10:35:00,
2013-03-04 04:40:00,37.3,27.7,29.70,ESE,103,5.0,10.0,68,0.00,,---,0.00,VWS V14.01,2013-03-04 10:40:00,
2013-03-04 04:45:00,37.2,27.6,29.70,ESE,103,2.0,10.0,68,0.00,,---,0.00,VWS V14.01,2013-03-04 10:45:00,
2013-03-04 04:50:00,37.0,27.4,29.69,ESE,116,2.0,10.0,68,0.00,,---,0.00,VWS V14.01,2013-03-04 10:50:00,
2013-03-04 04:55:00,36.9,27.3,29.69,SE,143,3.0,10.0,68,0.00,,---,0.00,VWS V14.01,2013-03-04 10:55:00,
2013-03-04 05:00:00,36.8,27.2,29.69,SE,134,2.0,10.0,68,0.00,,---,0.00,VWS V14.01,2013-03-04 11:00:00,
2013-03-04 05:05:00,36.6,27.0,29.69,East,99,2.0,5.0,68,0.00,,---,0.00,VWS V14.01,2013-03-04 11:05:00,
2013-03-04 05:10:00,36.5,27.0,29.69,SSE,151,1.0,5.0,68,0.00,,---,0.00,VWS V14.01,2013-03-04 11:10:00,
2013-03-04 05:15:00,36.3,27.1,29.69,SE,138,1.0,7.0,69,0.00,,---,0.00,VWS V14.01,2013-03-04 11:15:00,
2013-03-04 05:20:00,36.2,27.0,29.68,SE,137,2.0,7.0,69,0.00,,---,0.00,VWS V14.01,2013-03-04 11:20:00,
2013-03-04 05:25:00,36.2,27.0,29.68,SSE,150,1.0,7.0,69,0.00,,---,0.00,VWS V14.01,2013-03-04 11:25:00,
2013-03-04 05:30:00,36.2,27.0,29.68,SSE,148,1.0,7.0,69,0.00,,---,0.00,VWS V14.01,2013-03-04 11:30:00,
2013-03-04 05:35:00,36.0,26.8,29.69,East,101,2.0,3.0,69,0.00,,---,0.00,VWS V14.01,2013-03-04 11:35:00,
2013-03-04 05:39:00,36.0,26.8,29.69,East,100,2.0,6.0,69,0.00,,---,0.00,VWS V14.01,2013-03-04 11:39:00,
2013-03-04 05:44:00,36.0,26.8,29.69,ENE,72,0.0,6.0,69,0.00,,---,0.00,VWS V14.01,2013-03-04 11:44:00,
2013-03-04 05:49:00,36.0,26.8,29.69,ESE,108,1.0,6.0,69,0.00,,---,0.00,VWS V14.01,2013-03-04 11:49:00,
2013-03-04 05:54:00,35.9,26.7,29.69,East,92,2.0,6.0,69,0.00,,---,0.00,VWS V14.01,2013-03-04 11:54:00,
2013-03-04 05:59:00,35.8,27.0,29.69,ESE,102,0.0,6.0,70,0.00,,---,0.00,VWS V14.01,2013-03-04 11:59:00,
2013-03-04 06:00:00,35.8,27.0,29.70,East,101,3.0,6.0,70,0.00,,---,0.00,VWS V14.01,2013-03-04 12:00:00,
2013-03-04 06:04:00,35.6,26.8,29.70,SE,126,1.0,5.0,70,0.00,,---,0.00,VWS V14.01,2013-03-04 12:04:00,
2013-03-04 06:09:00,35.5,26.7,29.70,East,91,2.0,8.0,70,0.00,,---,0.00,VWS V14.01,2013-03-04 12:09:00,
2013-03-04 06:14:00,35.5,26.7,29.70,ESE,103,2.0,8.0,70,0.00,,---,0.00,VWS V14.01,2013-03-04 12:14:00,
2013-03-04 06:19:00,35.3,26.5,29.70,East,100,2.0,8.0,70,0.00,,---,0.00,VWS V14.01,2013-03-04 12:19:00,
2013-03-04 06:24:00,35.5,26.7,29.70,ESE,102,2.0,8.0,70,0.00,,---,0.00,VWS V14.01,2013-03-04 12:24:00,
2013-03-04 06:29:00,35.3,26.5,29.70,ESE,115,1.0,8.0,70,0.00,,---,0.00,VWS V14.01,2013-03-04 12:29:00,
2013-03-04 06:30:00,35.3,26.5,29.69,East,84,3.0,8.0,70,0.00,,---,0.00,VWS V14.01,2013-03-04 12:30:00,
2013-03-04 06:34:00,35.3,26.5,29.69,East,96,2.0,7.0,70,0.00,,---,0.00,VWS V14.01,2013-03-04 12:34:00,
2013-03-04 06:39:00,35.2,26.4,29.69,ESE,115,3.0,7.0,70,0.00,,---,0.00,VWS V14.01,2013-03-04 12:39:00,
2013-03-04 06:44:00,35.2,26.8,29.69,ESE,104,3.0,7.0,71,0.00,,---,0.00,VWS V14.01,2013-03-04 12:44:00,
2013-03-04 06:49:00,35.0,26.6,29.69,SE,145,1.0,7.0,71,0.00,,---,0.00,VWS V14.01,2013-03-04 12:49:00,
2013-03-04 06:54:00,34.9,26.5,29.69,ESE,104,1.0,7.0,71,0.00,,---,0.00,VWS V14.01,2013-03-04 12:54:00,
2013-03-04 06:59:00,34.7,26.3,29.69,ESE,107,0.0,7.0,71,0.00,,---,0.00,VWS V14.01,2013-03-04 12:59:00,
2013-03-04 07:00:00,34.7,26.3,29.69,ESE,116,2.0,7.0,71,0.00,,---,0.00,VWS V14.01,2013-03-04 13:00:00,
2013-03-04 07:04:00,34.6,26.2,29.69,SE,125,0.0,5.0,71,0.00,,---,0.00,VWS V14.01,2013-03-04 13:04:00,
2013-03-04 07:09:00,34.6,26.2,29.69,East,97,1.0,5.0,71,0.00,,---,0.00,VWS V14.01,2013-03-04 13:09:00,
2013-03-04 07:14:00,34.7,26.3,29.69,ESE,117,4.0,5.0,71,0.00,,---,0.00,VWS V14.01,2013-03-04 13:14:00,
2013-03-04 07:19:00,34.7,26.6,29.69,South,172,2.0,7.0,72,0.00,,---,0.00,VWS V14.01,2013-03-04 13:19:00,
2013-03-04 07:24:00,34.9,26.8,29.69,ESE,111,2.0,7.0,72,0.00,,---,0.00,VWS V14.01,2013-03-04 13:24:00,
2013-03-04 07:29:00,34.9,26.8,29.69,ESE,108,1.0,7.0,72,0.00,,---,0.00,VWS V14.01,2013-03-04 13:29:00,
2013-03-04 07:30:00,34.9,26.8,29.68,ENE,78,5.0,7.0,72,0.00,,---,0.00,VWS V14.01,2013-03-04 13:30:00,
2013-03-04 07:34:00,35.0,26.9,29.68,SSE,167,3.0,5.0,72,0.00,,---,0.00,VWS V14.01,2013-03-04 13:34:00,
2013-03-04 07:39:00,35.0,26.9,29.68,ESE,107,1.0,8.0,72,0.00,,---,0.00,VWS V14.01,2013-03-04 13:39:00,
2013-03-04 07:44:00,35.2,27.1,29.68,ESE,112,2.0,8.0,72,0.00,,---,0.00,VWS V14.01,2013-03-04 13:44:00,
2013-03-04 07:49:00,35.2,27.1,29.68,ESE,109,2.0,8.0,72,0.00,,---,0.00,VWS V14.01,2013-03-04 13:49:00,
2013-03-04 07:54:00,35.3,27.2,29.68,SE,138,2.0,8.0,72,0.00,,---,0.00,VWS V14.01,2013-03-04 13:54:00,
2013-03-04 07:59:00,35.5,27.4,29.68,ESE,105,2.0,8.0,72,0.00,,---,0.00,VWS V14.01,2013-03-04 13:59:00,
2013-03-04 08:00:00,35.5,27.7,29.68,East,92,3.0,8.0,73,0.00,,---,0.00,VWS V14.01,2013-03-04 14:00:00,
2013-03-04 08:04:00,35.5,27.7,29.68,ESE,105,0.0,5.0,73,0.00,,---,0.00,VWS V14.01,2013-03-04 14:04:00,
2013-03-04 08:09:00,35.8,28.0,29.68,East,83,5.0,10.0,73,0.00,,---,0.00,VWS V14.01,2013-03-04 14:09:00,
2013-03-04 08:14:00,35.9,28.1,29.68,ESE,120,7.0,10.0,73,0.00,,---,0.00,VWS V14.01,2013-03-04 14:14:00,
2013-03-04 08:19:00,36.2,28.4,29.68,ESE,111,2.0,10.0,73,0.00,,---,0.00,VWS V14.01,2013-03-04 14:19:00,
2013-03-04 08:24:00,36.3,28.5,29.68,SE,124,2.0,10.0,73,0.00,,---,0.00,VWS V14.01,2013-03-04 14:24:00,
2013-03-04 08:29:00,36.5,28.7,29.68,SE,134,3.0,10.0,73,0.00,,---,0.00,VWS V14.01,2013-03-04 14:29:00,
2013-03-04 08:30:00,36.5,28.7,29.69,East,90,1.0,10.0,73,0.00,,---,0.00,VWS V14.01,2013-03-04 14:30:00,
2013-03-04 08:34:00,36.6,28.4,29.69,ESE,109,3.0,4.0,72,0.00,,---,0.00,VWS V14.01,2013-03-04 14:34:00,
2013-03-04 08:39:00,36.8,28.6,29.69,ESE,117,5.0,8.0,72,0.00,,---,0.00,VWS V14.01,2013-03-04 14:39:00,
2013-03-04 08:44:00,36.9,28.7,29.69,ESE,108,1.0,8.0,72,0.00,,---,0.00,VWS V14.01,2013-03-04 14:44:00,
2013-03-04 08:49:00,37.0,28.8,29.69,ESE,104,4.0,8.0,72,0.00,,---,0.00,VWS V14.01,2013-03-04 14:49:00,
2013-03-04 08:54:00,37.2,29.0,29.69,SE,130,3.0,8.0,72,0.00,,---,0.00,VWS V14.01,2013-03-04 14:54:00,
2013-03-04 08:59:00,37.3,29.1,29.69,ESE,108,1.0,8.0,72,0.00,,---,0.00,VWS V14.01,2013-03-04 14:59:00,
2013-03-04 09:00:00,37.5,29.3,29.69,SE,124,2.0,8.0,72,0.00,,---,0.00,VWS V14.01,2013-03-04 15:00:00,
2013-03-04 09:04:00,37.6,29.4,29.69,East,95,6.0,6.0,72,0.00,,---,0.00,VWS V14.01,2013-03-04 15:04:00,
2013-03-04 09:09:00,37.8,29.6,29.69,ESE,119,2.0,7.0,72,0.00,,---,0.00,VWS V14.01,2013-03-04 15:09:00,
2013-03-04 09:14:00,38.2,30.0,29.69,SE,140,1.0,7.0,72,0.00,,---,0.00,VWS V14.01,2013-03-04 15:14:00,
2013-03-04 09:19:00,38.3,30.1,29.69,SE,126,2.0,7.0,72,0.00,,---,0.00,VWS V14.01,2013-03-04 15:19:00,
2013-03-04 09:24:00,38.5,30.3,29.69,East,94,0.0,7.0,72,0.00,,---,0.00,VWS V14.01,2013-03-04 15:24:00,
2013-03-04 09:29:00,38.8,30.2,29.69,SE,142,1.0,7.0,71,0.00,,---,0.00,VWS V14.01,2013-03-04 15:29:00,
2013-03-04 09:30:00,38.9,30.3,29.70,SE,126,2.0,7.0,71,0.00,,---,0.00,VWS V14.01,2013-03-04 15:30:00,
2013-03-04 09:34:00,39.1,30.5,29.70,SE,144,3.0,4.0,71,0.00,,---,0.00,VWS V14.01,2013-03-04 15:34:00,
2013-03-04 09:39:00,39.1,30.5,29.70,South,170,1.0,7.0,71,0.00,,---,0.00,VWS V14.01,2013-03-04 15:39:00,
2013-03-04 09:44:00,39.2,30.6,29.70,SSE,152,3.0,7.0,71,0.00,,---,0.00,VWS V14.01,2013-03-04 15:44:00,
2013-03-04 09:49:00,39.3,30.7,29.69,ESE,114,0.0,7.0,71,0.00,,---,0.00,VWS V14.01,2013-03-04 15:49:00,
2013-03-04 09:54:00,39.6,31.0,29.69,SSE,149,2.0,7.0,71,0.00,,---,0.00,VWS V14.01,2013-03-04 15:54:00,
2013-03-04 09:59:00,39.8,30.8,29.69,SE,140,1.0,7.0,70,0.00,,---,0.00,VWS V14.01,2013-03-04 15:59:00,
2013-03-04 10:00:00,39.8,30.8,29.69,ESE,111,1.0,7.0,70,0.00,,---,0.00,VWS V14.01,2013-03-04 16:00:00,
2013-03-04 10:04:00,39.8,30.8,29.69,SE,130,1.0,6.0,70,0.00,,---,0.00,VWS V14.01,2013-03-04 16:04:00,
2013-03-04 10:09:00,39.9,30.9,29.69,SE,134,0.0,6.0,70,0.00,,---,0.00,VWS V14.01,2013-03-04 16:09:00,
2013-03-04 10:14:00,40.1,31.1,29.69,ESE,112,3.0,6.0,70,0.00,,---,0.00,VWS V14.01,2013-03-04 16:14:00,
2013-03-04 10:19:00,40.2,31.2,29.68,ESE,105,1.0,6.0,70,0.00,,---,0.00,VWS V14.01,2013-03-04 16:19:00,
2013-03-04 10:24:00,40.5,31.5,29.68,South,169,1.0,6.0,70,0.00,,---,0.00,VWS V14.01,2013-03-04 16:24:00,
2013-03-04 10:29:00,40.8,31.4,29.68,ESE,106,4.0,6.0,69,0.00,,---,0.00,VWS V14.01,2013-03-04 16:29:00,
2013-03-04 10:30:00,41.1,31.7,29.69,ESE,102,5.0,6.0,69,0.00,,---,0.00,VWS V14.01,2013-03-04 16:30:00,
2013-03-04 10:34:00,41.1,31.7,29.69,ESE,102,2.0,6.0,69,0.00,,---,0.00,VWS V14.01,2013-03-04 16:34:00,
2013-03-04 10:39:00,41.2,31.8,29.69,ESE,112,1.0,6.0,69,0.00,,---,0.00,VWS V14.01,2013-03-04 16:39:00,
2013-03-04 10:44:00,41.5,32.1,29.69,ESE,113,3.0,7.0,69,0.00,,---,0.00,VWS V14.01,2013-03-04 16:44:00,
2013-03-04 10:49:00,41.6,31.8,29.69,SSE,150,2.0,7.0,68,0.00,,---,0.00,VWS V14.01,2013-03-04 16:49:00,
2013-03-04 10:54:00,41.8,32.0,29.69,SE,128,0.0,7.0,68,0.00,,---,0.00,VWS V14.01,2013-03-04 16:54:00,
2013-03-04 10:59:00,42.1,32.3,29.69,SSE,148,0.0,8.0,68,0.00,,---,0.00,VWS V14.01,2013-03-04 16:59:00,
2013-03-04 11:00:00,42.2,32.4,29.69,SSE,157,3.0,8.0,68,0.00,,---,0.00,VWS V14.01,2013-03-04 17:00:00,
2013-03-04 11:04:00,42.2,32.4,29.69,SE,136,1.0,3.0,68,0.00,,---,0.00,VWS V14.01,2013-03-04 17:04:00,
2013-03-04 11:09:00,42.3,32.5,29.69,SE,136,0.0,3.0,68,0.00,,---,0.00,VWS V14.01,2013-03-04 17:09:00,
2013-03-04 11:14:00,42.6,32.8,29.69,SE,136,1.0,3.0,68,0.00,,---,0.00,VWS V14.01,2013-03-04 17:14:00,
2013-03-04 11:19:00,42.8,33.0,29.69,ESE,122,1.0,3.0,68,0.00,,---,0.00,VWS V14.01,2013-03-04 17:19:00,
2013-03-04 11:24:00,42.9,33.1,29.69,SE,124,1.0,3.0,68,0.00,,---,0.00,VWS V14.01,2013-03-04 17:24:00,
2013-03-04 11:29:00,43.5,33.3,29.69,ESE,123,1.0,4.0,67,0.00,,---,0.00,VWS V14.01,2013-03-04 17:29:00,
2013-03-04 11:30:00,43.8,33.6,29.69,East,87,0.0,4.0,67,0.00,,---,0.00,VWS V14.01,2013-03-04 17:30:00,
2013-03-04 11:34:00,43.9,33.7,29.69,ESE,106,2.0,3.0,67,0.00,,---,0.00,VWS V14.01,2013-03-04 17:34:00,
2013-03-04 11:39:00,43.9,33.3,29.69,East,99,1.0,3.0,66,0.00,,---,0.00,VWS V14.01,2013-03-04 17:39:00,
2013-03-04 11:44:00,43.9,33.3,29.69,ESE,121,0.0,3.0,66,0.00,,---,0.00,VWS V14.01,2013-03-04 17:44:00,
2013-03-04 11:49:00,44.1,33.5,29.69,ESE,109,0.0,3.0,66,0.00,,---,0.00,VWS V14.01,2013-03-04 17:49:00,
2013-03-04 11:54:00,44.3,33.7,29.69,ESE,109,0.0,3.0,66,0.00,,---,0.00,VWS V14.01,2013-03-04 17:54:00,
2013-03-04 11:59:00,44.8,33.8,29.69,ESE,111,0.0,3.0,65,0.00,,---,0.00,VWS V14.01,2013-03-04 17:59:00,
2013-03-04 12:00:00,44.8,33.8,29.68,ESE,117,2.0,4.0,65,0.00,,---,0.00,VWS V14.01,2013-03-04 18:00:00,
2013-03-04 12:04:00,44.8,33.8,29.68,ESE,117,1.0,2.0,65,0.00,,---,0.00,VWS V14.01,2013-03-04 18:04:00,
2013-03-04 12:09:00,44.6,33.6,29.68,ESE,117,0.0,2.0,65,0.00,,---,0.00,VWS V14.01,2013-03-04 18:09:00,
2013-03-04 12:14:00,44.6,33.6,29.68,SE,135,0.0,2.0,65,0.00,,---,0.00,VWS V14.01,2013-03-04 18:14:00,
2013-03-04 12:19:00,44.8,33.8,29.68,SE,135,0.0,2.0,65,0.00,,---,0.00,VWS V14.01,2013-03-04 18:19:00,
2013-03-04 12:24:00,45.1,34.0,29.68,SE,135,0.0,2.0,65,0.00,,---,0.00,VWS V14.01,2013-03-04 18:24:00,
2013-03-04 12:29:00,45.4,34.0,29.68,SE,135,1.0,2.0,64,0.00,,---,0.00,VWS V14.01,2013-03-04 18:29:00,
2013-03-04 12:30:00,45.5,34.0,29.69,SE,135,0.0,2.0,64,0.00,,---,0.00,VWS V14.01,2013-03-04 18:30:00,
2013-03-04 12:34:00,45.4,34.0,29.69,SE,135,0.0,2.0,64,0.00,,---,0.00,VWS V14.01,2013-03-04 18:34:00,
2013-03-04 12:39:00,45.1,33.7,29.69,ENE,65,3.0,4.0,64,0.00,,---,0.00,VWS V14.01,2013-03-04 18:39:00,
2013-03-04 12:44:00,44.8,33.4,29.69,ENE,65,1.0,4.0,64,0.00,,---,0.00,VWS V14.01,2013-03-04 18:44:00,
2013-03-04 12:49:00,44.6,33.2,29.69,ENE,65,1.0,4.0,64,0.00,,---,0.00,VWS V14.01,2013-03-04 18:49:00,
2013-03-04 12:54:00,44.5,33.1,29.69,ENE,65,0.0,4.0,64,0.00,,---,0.00,VWS V14.01,2013-03-04 18:54:00,
2013-03-04 12:59:00,44.8,33.4,29.69,ENE,65,0.0,4.0,64,0.00,,---,0.00,VWS V14.01,2013-03-04 18:59:00,
2013-03-04 13:00:00,44.9,33.5,29.69,ENE,65,0.0,4.0,64,0.00,,---,0.00,VWS V14.01,2013-03-04 19:00:00,
2013-03-04 13:04:00,45.1,33.7,29.69,ENE,65,1.0,1.0,64,0.00,,---,0.00,VWS V14.01,2013-03-04 19:04:00,
2013-03-04 13:09:00,45.2,33.8,29.69,ENE,65,2.0,2.0,64,0.00,,---,0.00,VWS V14.01,2013-03-04 19:09:00,
2013-03-04 13:14:00,45.2,33.8,29.69,ENE,65,1.0,2.0,64,0.00,,---,0.00,VWS V14.01,2013-03-04 19:14:00,
2013-03-04 13:19:00,45.1,33.7,29.69,ENE,65,1.0,3.0,64,0.00,,---,0.00,VWS V14.01,2013-03-04 19:19:00,
2013-03-04 13:24:00,45.2,33.8,29.69,ENE,65,0.0,3.0,64,0.00,,---,0.00,VWS V14.01,2013-03-04 19:24:00,
2013-03-04 13:29:00,45.4,33.6,29.69,ENE,65,1.0,3.0,63,0.00,,---,0.00,VWS V14.01,2013-03-04 19:29:00,
2013-03-04 13:30:00,45.2,33.8,29.68,ENE,65,1.0,4.0,64,0.00,,---,0.00,VWS V14.01,2013-03-04 19:30:00,
2013-03-04 13:34:00,45.4,34.0,29.68,ENE,65,1.0,3.0,64,0.00,,---,0.00,VWS V14.01,2013-03-04 19:34:00,
2013-03-04 13:39:00,45.7,33.8,29.68,ENE,65,1.0,3.0,63,0.00,,---,0.00,VWS V14.01,2013-03-04 19:39:00,
2013-03-04 13:44:00,45.8,33.9,29.68,ENE,65,2.0,3.0,63,0.00,,---,0.00,VWS V14.01,2013-03-04 19:44:00,
2013-03-04 13:49:00,46.2,34.3,29.68,NE,48,1.0,4.0,63,0.00,,---,0.00,VWS V14.01,2013-03-04 19:49:00,
2013-03-04 13:54:00,46.5,34.6,29.68,NE,48,1.0,4.0,63,0.00,,---,0.00,VWS V14.01,2013-03-04 19:54:00,
2013-03-04 13:59:00,46.5,34.6,29.68,NE,48,0.0,4.0,63,0.00,,---,0.00,VWS V14.01,2013-03-04 19:59:00,
2013-03-04 14:00:00,46.5,34.6,29.68,NE,48,1.0,4.0,63,0.00,,---,0.00,VWS V14.01,2013-03-04 20:00:00,
2013-03-04 14:04:00,46.5,34.6,29.68,NE,48,0.0,2.0,63,0.00,,---,0.00,VWS V14.01,2013-03-04 20:04:00,
2013-03-04 14:09:00,46.5,34.6,29.68,NE,48,1.0,2.0,63,0.00,,---,0.00,VWS V14.01,2013-03-04 20:09:00,
2013-03-04 14:14:00,46.5,34.2,29.68,NE,49,1.0,3.0,62,0.00,,---,0.00,VWS V14.01,2013-03-04 20:14:00,
2013-03-04 14:19:00,46.2,33.9,29.68,NE,49,1.0,3.0,62,0.00,,---,0.00,VWS V14.01,2013-03-04 20:19:00,
2013-03-04 14:24:00,46.5,34.6,29.68,NE,49,0.0,3.0,63,0.00,,---,0.00,VWS V14.01,2013-03-04 20:24:00,
2013-03-04 14:29:00,47.0,34.7,29.68,NE,51,0.0,3.0,62,0.00,,---,0.00,VWS V14.01,2013-03-04 20:29:00,
2013-03-04 14:30:00,47.3,35.0,29.68,NE,51,0.0,3.0,62,0.00,,---,0.00,VWS V14.01,2013-03-04 20:30:00,
2013-03-04 14:34:00,47.4,35.0,29.68,NE,51,0.0,1.0,62,0.00,,---,0.00,VWS V14.01,2013-03-04 20:34:00,
2013-03-04 14:39:00,47.7,35.3,29.68,NE,51,0.0,2.0,62,0.00,,---,0.00,VWS V14.01,2013-03-04 20:39:00,
2013-03-04 14:44:00,47.9,35.5,29.68,NE,51,2.0,3.0,62,0.00,,---,0.00,VWS V14.01,2013-03-04 20:44:00,
2013-03-04 14:49:00,47.9,35.5,29.68,NE,51,0.0,3.0,62,0.00,,---,0.00,VWS V14.01,2013-03-04 20:49:00,
2013-03-04 14:54:00,48.0,35.6,29.68,NE,54,1.0,3.0,62,0.00,,---,0.00,VWS V14.01,2013-03-04 20:54:00,
2013-03-04 14:59:00,48.3,35.9,29.68,NE,54,0.0,3.0,62,0.00,,---,0.00,VWS V14.01,2013-03-04 20:59:00,
2013-03-04 15:00:00,48.6,35.8,29.69,NE,56,1.0,3.0,61,0.00,,---,0.00,VWS V14.01,2013-03-04 21:00:00,
2013-03-04 15:04:00,48.8,36.0,29.69,ENE,67,2.0,3.0,61,0.00,,---,0.00,VWS V14.01,2013-03-04 21:04:00,
2013-03-04 15:09:00,48.8,36.0,29.69,ENE,70,1.0,3.0,61,0.00,,---,0.00,VWS V14.01,2013-03-04 21:09:00,
2013-03-04 15:14:00,48.9,36.1,29.69,ENE,70,0.0,3.0,61,0.00,,---,0.00,VWS V14.01,2013-03-04 21:14:00,
2013-03-04 15:19:00,48.5,35.7,29.69,ENE,70,1.0,3.0,61,0.00,,---,0.00,VWS V14.01,2013-03-04 21:19:00,
2013-03-04 15:24:00,48.0,35.2,29.69,ENE,70,1.0,3.0,61,0.00,,---,0.00,VWS V14.01,2013-03-04 21:24:00,
2013-03-04 15:29:00,47.7,34.9,29.69,ENE,70,0.0,3.0,61,0.00,,---,0.00,VWS V14.01,2013-03-04 21:29:00,
2013-03-04 15:30:00,47.6,34.8,29.70,ENE,70,0.0,3.0,61,0.00,,---,0.00,VWS V14.01,2013-03-04 21:30:00,
2013-03-04 15:34:00,47.6,34.8,29.70,ENE,70,0.0,2.0,61,0.00,,---,0.00,VWS V14.01,2013-03-04 21:34:00,
2013-03-04 15:39:00,47.6,34.8,29.70,ENE,70,0.0,2.0,61,0.00,,---,0.00,VWS V14.01,2013-03-04 21:39:00,
2013-03-04 15:44:00,47.7,34.9,29.70,ENE,70,0.0,2.0,61,0.00,,---,0.00,VWS V14.01,2013-03-04 21:44:00,
2013-03-04 15:49:00,48.0,35.2,29.70,ENE,70,1.0,2.0,61,0.00,,---,0.00,VWS V14.01,2013-03-04 21:49:00,
2013-03-04 15:54:00,48.5,35.7,29.70,South,189,3.0,3.0,61,0.00,,---,0.00,VWS V14.01,2013-03-04 21:54:00,
2013-03-04 15:59:00,48.8,35.5,29.70,SW,225,1.0,4.0,60,0.00,,---,0.00,VWS V14.01,2013-03-04 21:59:00,
2013-03-04 16:00:00,49.1,35.8,29.71,SW,225,0.0,4.0,60,0.00,,---,0.00,VWS V14.01,2013-03-04 22:00:00,
2013-03-04 16:04:00,49.2,35.9,29.71,SW,225,0.0,1.0,60,0.00,,---,0.00,VWS V14.01,2013-03-04 22:04:00,
2013-03-04 16:09:00,49.6,36.3,29.71,SW,225,2.0,2.0,60,0.00,,---,0.00,VWS V14.01,2013-03-04 22:09:00,
2013-03-04 16:14:00,49.9,36.6,29.71,SW,225,0.0,2.0,60,0.00,,---,0.00,VWS V14.01,2013-03-04 22:14:00,
2013-03-04 16:19:00,50.1,36.3,29.71,SW,225,0.0,2.0,59,0.00,,---,0.00,VWS V14.01,2013-03-04 22:19:00,
2013-03-04 16:24:00,50.4,36.6,29.71,SW,225,0.0,2.0,59,0.00,,---,0.00,VWS V14.01,2013-03-04 22:24:00,
2013-03-04 16:29:00,50.4,36.6,29.71,SW,225,0.0,2.0,59,0.00,,---,0.00,VWS V14.01,2013-03-04 22:29:00,
2013-03-04 16:30:00,50.2,36.4,29.72,SW,225,0.0,2.0,59,0.00,,---,0.00,VWS V14.01,2013-03-04 22:30:00,
2013-03-04 16:34:00,50.2,36.4,29.72,SW,225,0.0,0.0,59,0.00,,---,0.00,VWS V14.01,2013-03-04 22:34:00,
2013-03-04 16:39:00,49.8,36.1,29.72,SW,225,1.0,1.0,59,0.00,,---,0.00,VWS V14.01,2013-03-04 22:39:00,
2013-03-04 16:44:00,49.4,35.7,29.72,SW,225,0.0,3.0,59,0.00,,---,0.00,VWS V14.01,2013-03-04 22:44:00,
2013-03-04 16:49:00,49.1,35.4,29.73,SW,225,0.0,3.0,59,0.00,,---,0.00,VWS V14.01,2013-03-04 22:49:00,
2013-03-04 16:54:00,48.8,35.1,29.73,NNW,347,5.0,5.0,59,0.00,,---,0.00,VWS V14.01,2013-03-04 22:54:00,
2013-03-04 16:59:00,48.2,34.6,29.73,North,360,0.0,5.0,59,0.00,,---,0.00,VWS V14.01,2013-03-04 22:59:00,
2013-03-04 17:00:00,48.0,34.4,29.74,North,360,0.0,5.0,59,0.00,,---,0.00,VWS V14.01,2013-03-04 23:00:00,
2013-03-04 17:04:00,47.9,34.3,29.74,North,360,0.0,0.0,59,0.00,,---,0.00,VWS V14.01,2013-03-04 23:04:00,
2013-03-04 17:09:00,47.7,34.1,29.74,North,360,0.0,0.0,59,0.00,,---,0.00,VWS V14.01,2013-03-04 23:09:00,
2013-03-04 17:14:00,47.4,33.8,29.74,North,360,0.0,1.0,59,0.00,,---,0.00,VWS V14.01,2013-03-04 23:14:00,
2013-03-04 17:19:00,46.7,33.2,29.74,ESE,104,1.0,4.0,59,0.00,,---,0.00,VWS V14.01,2013-03-04 23:19:00,
2013-03-04 17:24:00,46.1,32.6,29.74,ENE,59,2.0,5.0,59,0.00,,---,0.00,VWS V14.01,2013-03-04 23:24:00,
2013-03-04 17:29:00,45.7,32.2,29.74,ENE,59,2.0,5.0,59,0.00,,---,0.00,VWS V14.01,2013-03-04 23:29:00,
2013-03-04 17:30:00,45.5,32.0,29.75,ENE,59,1.0,5.0,59,0.00,,---,0.00,VWS V14.01,2013-03-04 23:30:00,
2013-03-04 17:34:00,45.4,31.9,29.75,ENE,59,1.0,2.0,59,0.00,,---,0.00,VWS V14.01,2013-03-04 23:34:00,
2013-03-04 17:39:00,45.1,31.6,29.75,ENE,59,0.0,2.0,59,0.00,,---,0.00,VWS V14.01,2013-03-04 23:39:00,
2013-03-04 17:44:00,44.5,31.5,29.75,ENE,59,0.0,2.0,60,0.00,,---,0.00,VWS V14.01,2013-03-04 23:44:00,
2013-03-04 17:49:00,44.1,31.1,29.75,ENE,59,0.0,2.0,60,0.00,,---,0.00,VWS V14.01,2013-03-04 23:49:00,
2013-03-04 17:54:00,43.5,30.5,29.75,ENE,59,0.0,2.0,60,0.00,,---,0.00,VWS V14.01,2013-03-04 23:54:00,
2013-03-04 17:59:00,43.1,30.2,29.75,ENE,59,0.0,2.0,60,0.00,,---,0.00,VWS V14.01,2013-03-04 23:59:00,
2013-03-04 18:00:00,42.9,30.4,29.76,ENE,59,0.0,2.0,61,0.00,,---,0.00,VWS V14.01,2013-03-05 00:00:00,
2013-03-04 18:04:00,42.6,30.1,29.76,ENE,59,1.0,2.0,61,0.00,,---,0.00,VWS V14.01,2013-03-05 00:04:00,
2013-03-04 18:09:00,42.3,29.8,29.76,ENE,59,0.0,3.0,61,0.00,,---,0.00,VWS V14.01,2013-03-05 00:09:00,
2013-03-04 18:14:00,41.8,29.4,29.76,ENE,59,0.0,3.0,61,0.00,,---,0.00,VWS V14.01,2013-03-05 00:14:00,
2013-03-04 18:19:00,41.2,28.8,29.77,ENE,59,0.0,3.0,61,0.00,,---,0.00,VWS V14.01,2013-03-05 00:19:00,
2013-03-04 18:24:00,40.8,28.8,29.77,ENE,59,3.0,3.0,62,0.00,,---,0.00,VWS V14.01,2013-03-05 00:24:00,
2013-03-04 18:29:00,40.9,28.9,29.77,NE,44,0.0,4.0,62,0.00,,---,0.00,VWS V14.01,2013-03-05 00:29:00,
2013-03-04 18:30:00,41.1,29.5,29.78,NE,44,3.0,5.0,63,0.00,,---,0.00,VWS V14.01,2013-03-05 00:30:00,
2013-03-04 18:34:00,41.3,29.7,29.78,NNE,16,2.0,5.0,63,0.00,,---,0.00,VWS V14.01,2013-03-05 00:34:00,
2013-03-04 18:39:00,41.8,30.1,29.78,NNW,343,3.0,7.0,63,0.00,,---,0.00,VWS V14.01,2013-03-05 00:39:00,
2013-03-04 18:44:00,41.9,30.2,29.78,North,350,3.0,7.0,63,0.00,,---,0.00,VWS V14.01,2013-03-05 00:44:00,
2013-03-04 18:49:00,41.9,30.2,29.80,NNW,340,4.0,10.0,63,0.00,,---,0.00,VWS V14.01,2013-03-05 00:49:00,
2013-03-04 18:54:00,41.9,30.2,29.80,NNW,344,2.0,10.0,63,0.00,,---,0.00,VWS V14.01,2013-03-05 00:54:00,
2013-03-04 18:59:00,41.9,30.2,29.80,NW,322,4.0,11.0,63,0.00,,---,0.00,VWS V14.01,2013-03-05 00:59:00,
2013-03-04 19:00:00,41.9,30.2,29.82,NW,315,2.0,11.0,63,0.00,,---,0.00,VWS V14.01,2013-03-05 01:00:00,
2013-03-04 19:04:00,41.8,30.1,29.82,North,351,4.0,7.0,63,0.00,,---,0.00,VWS V14.01,2013-03-05 01:04:00,
2013-03-04 19:09:00,41.6,30.0,29.82,West,275,2.0,7.0,63,0.00,,---,0.00,VWS V14.01,2013-03-05 01:09:00,
2013-03-04 19:14:00,41.3,29.7,29.82,NNW,329,9.0,12.0,63,0.00,,---,0.00,VWS V14.01,2013-03-05 01:14:00,
2013-03-04 19:19:00,41.1,29.9,29.84,West,281,6.0,12.0,64,0.00,,---,0.00,VWS V14.01,2013-03-05 01:19:00,
2013-03-04 19:24:00,40.9,29.7,29.84,NNW,348,11.0,13.0,64,0.00,,---,0.00,VWS V14.01,2013-03-05 01:24:00,
2013-03-04 19:29:00,40.5,29.3,29.84,NNW,342,9.0,13.0,64,0.00,,---,0.00,VWS V14.01,2013-03-05 01:29:00,
2013-03-04 19:30:00,40.3,29.1,29.85,North,9,6.0,13.0,64,0.00,,---,0.00,VWS V14.01,2013-03-05 01:30:00,
2013-03-04 19:34:00,40.2,29.0,29.85,NNW,339,11.0,11.0,64,0.00,,---,0.00,VWS V14.01,2013-03-05 01:34:00,
2013-03-04 19:39:00,40.1,28.9,29.85,North,355,6.0,12.0,64,0.00,,---,0.00,VWS V14.01,2013-03-05 01:39:00,
2013-03-04 19:44:00,39.8,28.6,29.85,North,10,5.0,12.0,64,0.00,,---,0.00,VWS V14.01,2013-03-05 01:44:00,
2013-03-04 19:49:00,39.6,28.4,29.85,NNW,343,9.0,12.0,64,0.00,,---,0.00,VWS V14.01,2013-03-05 01:49:00,
2013-03-04 19:54:00,39.5,28.7,29.85,NW,317,7.0,13.0,65,0.00,,---,0.00,VWS V14.01,2013-03-05 01:54:00,
2013-03-04 19:59:00,39.3,28.5,29.85,NNW,333,8.0,13.0,65,0.00,,---,0.00,VWS V14.01,2013-03-05 01:59:00,
2013-03-04 20:00:00,39.3,28.5,29.86,North,5,7.0,13.0,65,0.00,,---,0.00,VWS V14.01,2013-03-05 02:00:00,
2013-03-04 20:04:00,39.3,28.5,29.86,NNW,346,9.0,11.0,65,0.00,,---,0.00,VWS V14.01,2013-03-05 02:04:00,
2013-03-04 20:09:00,39.2,28.4,29.86,NNW,344,5.0,11.0,65,0.00,,---,0.00,VWS V14.01,2013-03-05 02:09:00,
2013-03-04 20:14:00,39.1,28.3,29.86,NNW,345,8.0,11.0,65,0.00,,---,0.00,VWS V14.01,2013-03-05 02:14:00,
2013-03-04 20:19:00,39.1,28.7,29.87,NNW,336,4.0,12.0,66,0.00,,---,0.00,VWS V14.01,2013-03-05 02:19:00,
2013-03-04 20:24:00,38.9,28.5,29.87,NNW,344,3.0,12.0,66,0.00,,---,0.00,VWS V14.01,2013-03-05 02:24:00,
2013-03-04 20:29:00,38.8,28.4,29.87,North,350,5.0,12.0,66,0.00,,---,0.00,VWS V14.01,2013-03-05 02:29:00,
2013-03-04 20:30:00,38.8,28.4,29.88,NNW,339,5.0,12.0,66,0.00,,---,0.00,VWS V14.01,2013-03-05 02:30:00,
2013-03-04 20:34:00,38.8,28.4,29.88,NNW,333,4.0,9.0,66,0.00,,---,0.00,VWS V14.01,2013-03-05 02:34:00,
2013-03-04 20:39:00,38.8,28.4,29.88,NNW,336,4.0,9.0,66,0.00,,---,0.00,VWS V14.01,2013-03-05 02:39:00,
2013-03-04 20:44:00,38.8,28.8,29.88,NNW,346,6.0,9.0,67,0.00,,---,0.00,VWS V14.01,2013-03-05 02:44:00,
2013-03-04 20:49:00,38.8,28.8,29.88,NNW,331,6.0,10.0,67,0.00,,---,0.00,VWS V14.01,2013-03-05 02:49:00,
2013-03-04 20:54:00,38.8,28.8,29.88,NW,323,3.0,11.0,67,0.00,,---,0.00,VWS V14.01,2013-03-05 02:54:00,
2013-03-04 20:59:00,38.8,28.8,29.88,NNW,343,7.0,11.0,67,0.00,,---,0.00,VWS V14.01,2013-03-05 02:59:00,
2013-03-04 21:00:00,38.6,28.6,29.89,North,355,8.0,11.0,67,0.00,,---,0.00,VWS V14.01,2013-03-05 03:00:00,
2013-03-04 21:04:00,38.6,28.6,29.89,NNW,340,4.0,8.0,67,0.00,,---,0.00,VWS V14.01,2013-03-05 03:04:00,
2013-03-04 21:09:00,38.6,28.6,29.89,NNW,333,6.0,10.0,67,0.00,,---,0.00,VWS V14.01,2013-03-05 03:09:00,
2013-03-04 21:14:00,38.6,29.0,29.89,NNW,344,4.0,10.0,68,0.00,,---,0.00,VWS V14.01,2013-03-05 03:14:00,
2013-03-04 21:19:00,38.6,29.0,29.90,NNW,344,1.0,10.0,68,0.00,,---,0.00,VWS V14.01,2013-03-05 03:19:00,
2013-03-04 21:24:00,38.5,28.9,29.90,North,360,7.0,10.0,68,0.00,,---,0.00,VWS V14.01,2013-03-05 03:24:00,
2013-03-04 21:29:00,38.5,28.9,29.90,WNW,298,6.0,10.0,68,0.00,,---,0.00,VWS V14.01,2013-03-05 03:29:00,
2013-03-04 21:30:00,38.3,28.7,29.91,NNW,344,5.0,10.0,68,0.00,,---,0.00,VWS V14.01,2013-03-05 03:30:00,
2013-03-04 21:34:00,38.3,28.7,29.91,NNW,330,2.0,9.0,68,0.00,,---,0.00,VWS V14.01,2013-03-05 03:34:00,
2013-03-04 21:39:00,38.2,28.6,29.91,NNW,333,5.0,9.0,68,0.00,,---,0.00,VWS V14.01,2013-03-05 03:39:00,
2013-03-04 21:44:00,38.3,28.7,29.91,NW,318,6.0,9.0,68,0.00,,---,0.00,VWS V14.01,2013-03-05 03:44:00,
2013-03-04 21:49:00,38.3,28.7,29.91,NW,317,6.0,10.0,68,0.00,,---,0.00,VWS V14.01,2013-03-05 03:49:00,
2013-03-04 21:54:00,38.3,29.0,29.91,NNW,333,8.0,12.0,69,0.00,,---,0.00,VWS V14.01,2013-03-05 03:54:00,
2013-03-04 21:59:00,38.3,29.0,29.91,NW,323,8.0,19.0,69,0.00,,---,0.00,VWS V14.01,2013-03-05 03:59:00,
2013-03-04 22:00:00,38.3,29.4,29.93,NW,316,3.0,19.0,70,0.00,,---,0.00,VWS V14.01,2013-03-05 04:00:00,
2013-03-04 22:04:00,38.2,29.3,29.93,NNW,335,2.0,7.0,70,0.00,,---,0.00,VWS V14.01,2013-03-05 04:04:00,
2013-03-04 22:09:00,38.0,29.1,29.93,NNW,340,5.0,15.0,70,0.00,,---,0.00,VWS V14.01,2013-03-05 04:09:00,
2013-03-04 22:14:00,37.9,29.4,29.93,NNW,335,7.0,15.0,71,0.00,,---,0.00,VWS V14.01,2013-03-05 04:14:00,
2013-03-04 22:19:00,37.8,29.3,29.93,NW,325,12.0,15.0,71,0.00,,---,0.00,VWS V14.01,2013-03-05 04:19:00,
2013-03-04 22:24:00,37.6,29.4,29.93,North,5,8.0,15.0,72,0.00,,---,0.00,VWS V14.01,2013-03-05 04:24:00,
2013-03-04 22:29:00,37.3,29.1,29.93,North,5,4.0,16.0,72,0.00,,---,0.00,VWS V14.01,2013-03-05 04:29:00,
2013-03-04 22:30:00,37.3,29.1,29.94,NNW,348,7.0,16.0,72,0.00,,---,0.00,VWS V14.01,2013-03-05 04:30:00,
2013-03-04 22:34:00,37.3,29.1,29.94,NW,308,2.0,8.0,72,0.00,,---,0.00,VWS V14.01,2013-03-05 04:34:00,
2013-03-04 22:39:00,37.0,28.8,29.94,NW,306,2.0,18.0,72,0.00,,---,0.00,VWS V14.01,2013-03-05 04:39:00,
2013-03-04 22:44:00,36.9,29.1,29.94,North,360,12.0,18.0,73,0.00,,---,0.00,VWS V14.01,2013-03-05 04:44:00,
2013-03-04 22:49:00,36.6,28.8,29.94,North,360,8.0,18.0,73,0.00,,---,0.00,VWS V14.01,2013-03-05 04:49:00,
2013-03-04 22:54:00,36.6,28.8,29.94,NNW,328,11.0,18.0,73,0.00,,---,0.00,VWS V14.01,2013-03-05 04:54:00,
2013-03-04 22:59:00,36.5,29.0,29.94,NNW,346,7.0,18.0,74,0.00,,---,0.00,VWS V14.01,2013-03-05 04:59:00,
2013-03-04 23:00:00,36.5,29.0,29.94,NW,323,2.0,18.0,74,0.00,,---,0.00,VWS V14.01,2013-03-05 05:00:00,
2013-03-04 23:05:00,36.5,29.3,29.95,NNW,339,14.0,16.0,75,0.00,,---,0.00,VWS V14.01,2013-03-05 05:05:00,
2013-03-04 23:10:00,36.3,29.1,29.95,NNW,336,5.0,16.0,75,0.00,,---,0.00,VWS V14.01,2013-03-05 05:10:00,
2013-03-04 23:15:00,36.2,29.0,29.95,North,355,1.0,16.0,75,0.00,,---,0.00,VWS V14.01,2013-03-05 05:15:00,
2013-03-04 23:20:00,36.0,29.2,29.95,NW,325,9.0,16.0,76,0.00,,---,0.00,VWS V14.01,2013-03-05 05:20:00,
2013-03-04 23:25:00,36.0,29.2,29.95,NNW,327,4.0,16.0,76,0.00,,---,0.00,VWS V14.01,2013-03-05 05:25:00,
2013-03-04 23:30:00,35.9,29.1,29.95,NNW,327,3.0,16.0,76,0.00,,---,0.00,VWS V14.01,2013-03-05 05:30:00,
2013-03-04 23:35:00,35.9,29.4,29.95,NNW,331,2.0,8.0,77,0.00,,---,0.00,VWS V14.01,2013-03-05 05:35:00,
2013-03-04 23:40:00,35.8,29.3,29.95,North,11,8.0,9.0,77,0.01,,---,0.01,VWS V14.01,2013-03-05 05:40:00,
2013-03-04 23:45:00,35.5,29.3,29.95,NNW,346,7.0,9.0,78,0.01,,---,0.01,VWS V14.01,2013-03-05 05:45:00,
2013-03-04 23:50:00,35.3,29.1,29.96,West,268,1.0,10.0,78,0.01,,---,0.01,VWS V14.01,2013-03-05 05:50:00,
2013-03-04 23:55:00,35.2,29.0,29.96,NNW,342,3.0,10.0,78,0.01,,---,0.01,VWS V14.01,2013-03-05 05:55:00,